createdAt,value
2023-02-09T00:01:21.534Z,25.43
2023-02-09T00:03:48.339Z,27.43
2023-02-09T00:06:17.812Z,26.07
2023-02-09T00:08:44.851Z,26.93
2023-02-09T00:11:22.404Z,25.10
2023-02-09T00:13:48.927Z,27.83
2023-02-09T00:16:15.540Z,29.07
2023-02-09T00:18:42.042Z,25.20
2023-02-09T00:21:10.895Z,29.77
2023-02-09T00:23:40.716Z,25.23
2023-02-09T00:26:10.441Z,26.90
2023-02-09T00:28:37.587Z,22.50
2023-02-09T00:31:12.503Z,24.87
2023-02-09T00:33:41.796Z,26.37
2023-02-09T00:36:11.691Z,26.43
2023-02-09T00:38:39.142Z,25.70
2023-02-09T00:41:06.172Z,24.23
2023-02-09T00:43:33.445Z,25.73
2023-02-09T00:45:59.944Z,26.83
2023-02-09T00:48:26.714Z,22.33
2023-02-09T00:50:54.402Z,25.10
2023-02-09T00:53:22.115Z,26.30
2023-02-09T00:55:48.977Z,26.70
2023-02-09T00:58:16.035Z,26.30
2023-02-09T01:00:42.841Z,26.33
2023-02-09T01:03:09.580Z,26.27
2023-02-09T01:05:40.505Z,27.73
2023-02-09T01:08:07.227Z,28.80
2023-02-09T01:10:34.345Z,29.67
2023-02-09T01:13:00.800Z,25.23
2023-02-09T01:15:28.905Z,23.07
2023-02-09T01:17:55.356Z,26.10
2023-02-09T01:20:21.896Z,29.17
2023-02-09T01:22:48.389Z,28.60
2023-02-09T01:25:14.838Z,26.43
2023-02-09T01:27:42.296Z,26.37
2023-02-09T01:30:09.795Z,25.83
2023-02-09T01:32:36.926Z,26.50
2023-02-09T01:35:04.149Z,24.87
2023-02-09T01:37:30.624Z,24.83
2023-02-09T01:39:57.186Z,26.03
2023-02-09T01:42:23.648Z,24.87
2023-02-09T01:44:50.297Z,26.80
2023-02-09T01:47:18.780Z,26.67
2023-02-09T01:49:48.977Z,29.40
2023-02-09T01:52:20.501Z,27.27
2023-02-09T01:54:52.712Z,26.83
2023-02-09T02:01:28.917Z,28.50
2023-02-09T02:03:55.682Z,29.03
2023-02-09T02:06:22.236Z,25.97
2023-02-09T02:08:58.002Z,30.13
2023-02-09T02:11:28.137Z,24.57
2023-02-09T02:13:54.641Z,30.37
2023-02-09T02:16:53.579Z,22.90
2023-02-09T02:19:43.975Z,28.57
2023-02-09T02:22:25.542Z,30.90
2023-02-09T02:25:10.646Z,29.07
2023-02-09T02:28:20.015Z,30.73
2023-02-09T02:31:18.091Z,26.80
2023-02-09T02:34:04.780Z,26.43
2023-02-09T02:36:55.475Z,27.43
2023-02-09T02:39:33.501Z,30.90
2023-02-09T02:42:33.463Z,24.30
2023-02-09T02:45:11.192Z,26.83
2023-02-09T02:47:42.020Z,28.60
2023-02-09T02:50:16.778Z,26.33
2023-02-09T02:52:47.478Z,27.53
2023-02-09T02:55:16.692Z,27.70
2023-02-09T02:57:47.228Z,27.90
2023-02-09T03:00:19.092Z,26.47
2023-02-09T03:02:53.481Z,28.77
2023-02-09T03:05:23.883Z,27.17
2023-02-09T03:07:50.662Z,27.07
2023-02-09T03:10:43.613Z,28.13
2023-02-09T03:13:12.972Z,28.40
2023-02-09T03:15:56.972Z,28.77
2023-02-09T03:18:39.619Z,33.20
2023-02-09T03:21:18.888Z,29.53
2023-02-09T03:23:53.684Z,29.00
2023-02-09T03:26:25.186Z,29.00
2023-02-09T03:28:56.976Z,28.03
2023-02-09T03:31:24.814Z,30.43
2023-02-09T03:33:51.847Z,30.30
2023-02-09T03:36:20.361Z,26.00
2023-02-09T03:38:46.767Z,28.43
2023-02-09T03:41:13.245Z,26.00
2023-02-09T03:43:58.297Z,28.67
2023-02-09T03:46:24.777Z,27.93
2023-02-09T03:48:51.359Z,26.07
2023-02-09T03:51:17.796Z,30.33
2023-02-09T03:53:44.216Z,32.13
2023-02-09T03:56:10.633Z,28.43
2023-02-09T03:58:37.143Z,28.47
2023-02-09T04:01:09.268Z,28.33
2023-02-09T04:03:36.424Z,32.73
2023-02-09T04:06:03.668Z,26.10
2023-02-09T04:08:30.178Z,28.30
2023-02-09T04:10:57.551Z,30.43
2023-02-09T04:13:25.020Z,33.83
2023-02-09T04:15:52.000Z,31.80
2023-02-09T04:18:18.641Z,32.43
2023-02-09T04:20:45.861Z,32.67
2023-02-09T04:23:12.940Z,33.77
2023-02-09T04:25:39.623Z,30.20
2023-02-09T04:28:06.119Z,28.40
2023-02-09T04:30:32.685Z,29.80
2023-02-09T04:32:59.361Z,27.93
2023-02-09T04:35:25.979Z,31.40
2023-02-09T04:37:52.449Z,30.83
2023-02-09T04:40:19.294Z,33.33
2023-02-09T04:42:46.814Z,35.97
2023-02-09T04:45:13.382Z,31.10
2023-02-09T04:47:39.865Z,30.20
2023-02-09T04:50:06.512Z,30.63
2023-02-09T04:52:33.012Z,30.53
2023-02-09T04:54:59.469Z,34.00
2023-02-09T04:57:44.535Z,30.53
2023-02-09T05:00:11.655Z,34.67
2023-02-09T05:02:38.101Z,34.47
2023-02-09T05:05:04.782Z,35.93
2023-02-09T05:07:31.237Z,33.63
2023-02-09T05:09:57.669Z,36.63
2023-02-09T05:12:24.160Z,34.93
2023-02-09T05:14:50.680Z,33.33
2023-02-09T05:17:20.987Z,34.83
2023-02-09T05:19:48.643Z,32.17
2023-02-09T05:22:15.204Z,41.27
2023-02-09T05:24:41.650Z,37.50
2023-02-09T05:27:08.166Z,35.17
2023-02-09T05:29:34.671Z,36.30
2023-02-09T05:32:01.221Z,32.30
2023-02-09T05:34:27.671Z,36.10
2023-02-09T05:36:54.177Z,33.53
2023-02-09T05:39:20.640Z,35.80
2023-02-09T05:42:05.732Z,29.93
2023-02-09T05:44:32.240Z,32.83
2023-02-09T05:46:58.772Z,30.47
2023-02-09T05:49:25.312Z,36.03
2023-02-09T05:51:51.876Z,34.13
2023-02-09T05:54:18.354Z,37.60
2023-02-09T05:56:44.831Z,30.47
2023-02-09T05:59:11.282Z,30.23
2023-02-09T06:01:37.911Z,33.60
2023-02-09T06:04:04.541Z,36.07
2023-02-09T06:06:31.298Z,35.20
2023-02-09T06:08:57.787Z,33.57
2023-02-09T06:11:24.239Z,29.93
2023-02-09T06:13:50.706Z,32.97
2023-02-09T06:16:17.184Z,32.40
2023-02-09T06:18:43.608Z,26.53
2023-02-09T06:21:12.029Z,32.03
2023-02-09T06:23:39.370Z,34.80
2023-02-09T06:26:11.559Z,33.00
2023-02-09T06:28:38.426Z,33.23
2023-02-09T06:31:06.844Z,35.83
2023-02-09T06:33:35.451Z,35.93
2023-02-09T06:36:02.493Z,34.07
2023-02-09T06:38:36.622Z,36.43
2023-02-09T06:41:04.246Z,32.67
2023-02-09T06:43:30.745Z,33.97
2023-02-09T06:45:57.331Z,37.30
2023-02-09T06:48:23.826Z,36.60
2023-02-09T06:50:50.263Z,38.60
2023-02-09T06:53:18.645Z,38.77
2023-02-09T06:55:45.212Z,37.43
2023-02-09T06:58:11.682Z,50.27
2023-02-09T07:00:38.180Z,50.13
2023-02-09T07:03:04.728Z,43.77
2023-02-09T07:05:31.637Z,46.00
2023-02-09T07:07:58.256Z,35.93
2023-02-09T07:10:24.848Z,41.00
2023-02-09T07:12:51.519Z,39.23
2023-02-09T07:15:18.112Z,35.57
2023-02-09T07:17:44.887Z,45.40
2023-02-09T07:20:11.786Z,48.47
2023-02-09T07:22:38.383Z,47.93
2023-02-09T07:25:05.389Z,36.43
2023-02-09T07:27:31.947Z,46.33
2023-02-09T07:30:00.752Z,43.90
2023-02-09T07:32:27.799Z,40.77
2023-02-09T07:34:54.347Z,37.23
2023-02-09T07:37:20.795Z,36.80
2023-02-09T07:39:47.424Z,40.43
2023-02-09T07:42:13.969Z,40.83
2023-02-09T07:44:48.793Z,38.83
2023-02-09T07:47:15.243Z,37.47
2023-02-09T07:49:41.738Z,43.60
2023-02-09T07:52:08.187Z,37.10
2023-02-09T07:54:34.652Z,35.23
2023-02-09T07:57:01.132Z,38.07
2023-02-09T07:59:27.780Z,39.50
2023-02-09T08:01:54.240Z,33.77
2023-02-09T08:04:20.922Z,40.83
2023-02-09T08:06:47.409Z,41.50
2023-02-09T08:09:18.091Z,37.57
2023-02-09T08:11:58.750Z,35.73
2023-02-09T08:14:31.829Z,30.70
2023-02-09T08:17:23.591Z,37.80
2023-02-09T08:20:02.269Z,40.80
2023-02-09T08:22:33.557Z,37.10
2023-02-09T08:25:02.837Z,44.57
2023-02-09T08:27:30.220Z,43.57
2023-02-09T08:29:58.413Z,42.50
2023-02-09T08:32:24.869Z,39.33
2023-02-09T08:34:51.360Z,41.03
2023-02-09T08:37:17.871Z,41.33
2023-02-09T08:39:45.198Z,40.67
2023-02-09T08:42:11.692Z,38.93
2023-02-09T08:44:38.148Z,41.70
2023-02-09T08:47:04.840Z,39.60
2023-02-09T08:49:31.347Z,30.07
2023-02-09T08:51:57.794Z,35.93
2023-02-09T08:54:25.326Z,29.27
2023-02-09T08:56:51.758Z,43.77
2023-02-09T08:59:20.062Z,40.37
2023-02-09T09:01:46.694Z,43.27
2023-02-09T09:04:13.534Z,48.40
2023-02-09T09:06:40.055Z,41.23
2023-02-09T09:09:06.645Z,35.17
2023-02-09T09:11:33.208Z,42.33
2023-02-09T09:13:59.674Z,42.83
2023-02-09T09:16:26.171Z,40.80
2023-02-09T09:18:52.654Z,50.23
2023-02-09T09:21:19.418Z,32.10
2023-02-09T09:23:46.913Z,31.57
2023-02-09T09:26:13.806Z,31.20
2023-02-09T09:28:40.288Z,30.83
2023-02-09T09:31:12.918Z,33.57
2023-02-09T09:33:40.217Z,29.07
2023-02-09T09:36:07.568Z,28.10
2023-02-09T09:38:35.930Z,29.90
2023-02-09T09:41:04.792Z,30.30
2023-02-09T09:43:39.384Z,30.07
2023-02-09T09:46:12.054Z,33.83
2023-02-09T09:48:45.697Z,29.27
2023-02-09T09:51:18.604Z,33.10
2023-02-09T09:53:49.421Z,31.10
2023-02-09T09:56:20.042Z,30.00
2023-02-09T09:58:47.382Z,31.77
2023-02-09T10:01:16.023Z,31.57
2023-02-09T10:03:42.820Z,26.63
2023-02-09T10:06:22.889Z,33.83
2023-02-09T10:08:55.093Z,32.57
2023-02-09T10:11:33.118Z,32.10
2023-02-09T10:13:59.603Z,29.47
2023-02-09T10:16:34.427Z,31.53
2023-02-09T10:19:05.816Z,31.50
2023-02-09T10:21:36.738Z,32.30
2023-02-09T10:24:12.739Z,27.50
2023-02-09T10:26:40.744Z,32.17
2023-02-09T10:29:13.376Z,28.57
2023-02-09T10:31:41.406Z,30.97
2023-02-09T10:34:17.088Z,31.30
2023-02-09T10:36:54.308Z,30.17
2023-02-09T10:39:39.350Z,32.13
2023-02-09T10:42:19.220Z,30.77
2023-02-09T10:44:50.360Z,31.53
2023-02-09T10:47:19.815Z,31.07
2023-02-09T10:50:07.711Z,28.87
2023-02-09T10:52:37.152Z,29.90
2023-02-09T10:55:17.409Z,30.17
2023-02-09T10:57:43.896Z,30.20
2023-02-09T11:00:16.202Z,31.33
2023-02-09T11:02:52.236Z,29.67
2023-02-09T11:05:21.716Z,32.50
2023-02-09T11:07:58.055Z,29.67
2023-02-09T11:10:27.114Z,28.43
2023-02-09T11:12:53.571Z,29.40
2023-02-09T11:15:26.687Z,29.73
2023-02-09T11:18:01.184Z,30.03
2023-02-09T11:20:35.486Z,29.23
2023-02-09T11:23:47.048Z,28.77
2023-02-09T11:26:32.297Z,31.33
2023-02-09T11:29:10.503Z,29.43
2023-02-09T11:32:01.841Z,33.07
2023-02-09T11:34:38.088Z,31.83
2023-02-09T11:37:20.883Z,30.83
2023-02-09T11:39:52.634Z,30.03
2023-02-09T11:42:45.650Z,29.37
2023-02-09T11:45:12.094Z,33.33
2023-02-09T11:47:58.334Z,30.50
2023-02-09T11:50:44.320Z,29.37
2023-02-09T11:53:23.484Z,29.13
2023-02-09T11:55:57.507Z,26.70
2023-02-09T11:58:51.779Z,27.57
2023-02-09T12:01:29.730Z,27.80
2023-02-09T12:04:03.980Z,29.03
2023-02-09T12:06:37.536Z,28.67
2023-02-09T12:09:37.735Z,29.57
2023-02-09T12:12:15.326Z,27.83
2023-02-09T12:14:49.590Z,31.40
2023-02-09T12:17:29.652Z,27.73
2023-02-09T12:19:59.122Z,28.30
2023-02-09T12:22:34.863Z,24.50
2023-02-09T12:25:10.458Z,25.77
2023-02-09T12:27:38.947Z,26.43
2023-02-09T12:30:42.393Z,25.93
2023-02-09T12:33:23.914Z,30.43
2023-02-09T12:36:09.049Z,29.70
2023-02-09T12:38:56.333Z,28.47
2023-02-09T12:41:28.507Z,29.00
2023-02-09T12:44:10.267Z,28.47
2023-02-09T12:46:51.733Z,29.27
2023-02-09T12:49:31.991Z,30.23
2023-02-09T12:52:01.417Z,31.23
2023-02-09T12:54:41.461Z,27.33
2023-02-09T12:57:17.387Z,26.13
2023-02-09T12:59:50.077Z,25.50
2023-02-09T13:02:38.053Z,24.43
2023-02-09T13:05:19.716Z,29.23
2023-02-09T13:07:53.218Z,26.97
2023-02-09T13:10:48.262Z,26.03
2023-02-09T13:13:19.616Z,29.47
2023-02-09T13:16:07.008Z,26.97
2023-02-09T13:19:00.535Z,27.37
2023-02-09T13:22:04.679Z,28.67
2023-02-09T13:24:41.500Z,27.93
2023-02-09T13:27:22.809Z,24.80
2023-02-09T13:29:57.395Z,23.67
2023-02-09T13:32:38.162Z,23.43
2023-02-09T13:35:21.480Z,21.53
2023-02-09T13:37:54.119Z,23.13
2023-02-09T13:40:26.705Z,25.20
2023-02-09T13:42:58.964Z,22.67
2023-02-09T13:45:26.835Z,27.20
2023-02-09T13:47:55.470Z,24.83
2023-02-09T13:50:24.349Z,24.77
2023-02-09T13:52:51.126Z,25.30
2023-02-09T13:55:25.340Z,24.47
2023-02-09T13:58:04.413Z,23.57
2023-02-09T14:00:40.390Z,24.97
2023-02-09T14:03:46.960Z,25.73
2023-02-09T14:06:39.883Z,26.10
2023-02-09T14:09:15.578Z,25.73
2023-02-09T14:11:51.898Z,28.20
2023-02-09T14:14:25.998Z,25.77
2023-02-09T14:17:24.497Z,26.43
2023-02-09T14:19:52.824Z,30.40
2023-02-09T14:22:39.848Z,27.30
2023-02-09T14:25:22.469Z,29.53
2023-02-09T14:27:49.529Z,28.30
2023-02-09T14:30:23.353Z,28.30
2023-02-09T14:32:56.006Z,26.43
2023-02-09T14:35:28.792Z,31.33
2023-02-09T14:37:58.477Z,30.40
2023-02-09T14:40:28.110Z,26.20
2023-02-09T14:43:12.540Z,28.60
2023-02-09T14:45:48.515Z,28.60
2023-02-09T14:48:27.368Z,28.27
2023-02-09T14:50:56.485Z,25.77
2023-02-09T14:53:26.151Z,27.20
2023-02-09T14:55:56.503Z,25.67
2023-02-09T14:58:26.301Z,26.70
2023-02-09T15:00:55.223Z,26.50
2023-02-09T15:03:22.252Z,28.40
2023-02-09T15:05:51.187Z,27.73
2023-02-09T15:08:21.143Z,24.50
2023-02-09T15:11:28.422Z,25.33
2023-02-09T15:14:03.635Z,25.63
2023-02-09T15:16:31.100Z,26.00
2023-02-09T15:18:57.657Z,29.80
2023-02-09T15:21:24.359Z,35.73
2023-02-09T15:23:50.805Z,26.57
2023-02-09T15:26:18.657Z,25.03
2023-02-09T15:28:45.094Z,28.33
2023-02-09T15:31:15.954Z,24.80
2023-02-09T15:33:43.095Z,23.23
2023-02-09T15:36:19.020Z,23.97
2023-02-09T15:38:45.502Z,24.87
2023-02-09T15:41:30.744Z,22.23
2023-02-09T15:44:15.913Z,23.23
2023-02-09T15:47:01.893Z,23.13
2023-02-09T15:49:30.903Z,21.27
2023-02-09T15:51:57.363Z,26.80
2023-02-09T15:54:29.570Z,22.33
2023-02-09T15:56:56.001Z,24.00
2023-02-09T15:59:23.630Z,23.40
2023-02-09T16:01:50.791Z,25.40
2023-02-09T16:04:18.174Z,22.27
2023-02-09T16:06:53.130Z,25.33
2023-02-09T16:09:23.515Z,25.00
2023-02-09T16:11:50.075Z,23.47
2023-02-09T16:14:20.298Z,23.27
2023-02-09T16:16:47.449Z,24.47
2023-02-09T16:19:14.612Z,26.50
2023-02-09T16:21:44.372Z,26.73
2023-02-09T16:24:30.263Z,28.23
2023-02-09T16:26:59.830Z,24.33
2023-02-09T16:29:26.410Z,29.07
2023-02-09T16:31:53.083Z,27.73
2023-02-09T16:34:19.620Z,27.90
2023-02-09T16:36:48.438Z,25.77
2023-02-09T16:39:20.431Z,26.83
2023-02-09T16:41:48.074Z,26.77
2023-02-09T16:44:26.993Z,31.10
2023-02-09T16:46:56.636Z,31.53
2023-02-09T16:49:37.449Z,31.07
2023-02-09T16:52:12.513Z,34.53
2023-02-09T16:54:54.677Z,42.67
2023-02-09T16:57:25.831Z,40.83
2023-02-09T16:59:53.416Z,38.60
2023-02-09T17:02:29.155Z,35.13
2023-02-09T17:04:55.759Z,40.47
2023-02-09T17:07:28.141Z,41.77
2023-02-09T17:09:57.403Z,36.03
2023-02-09T17:12:23.934Z,34.83
2023-02-09T17:14:50.446Z,33.10
2023-02-09T17:17:20.097Z,33.30
2023-02-09T17:19:49.491Z,35.70
2023-02-09T17:22:16.362Z,36.40
2023-02-09T17:24:42.944Z,35.00
2023-02-09T17:27:10.141Z,36.37
2023-02-09T17:29:36.589Z,38.47
2023-02-09T17:32:03.516Z,38.90
2023-02-09T17:34:30.193Z,28.80
2023-02-09T17:36:57.993Z,34.00
2023-02-09T17:39:24.967Z,34.13
2023-02-09T17:41:51.700Z,33.10
2023-02-09T17:44:43.687Z,28.00
2023-02-09T17:47:20.039Z,34.90
2023-02-09T17:49:46.986Z,30.27
2023-02-09T17:52:20.157Z,28.00
2023-02-09T17:54:47.567Z,27.60
2023-02-09T17:57:16.215Z,28.73
2023-02-09T17:59:43.236Z,27.20
2023-02-09T18:02:19.603Z,23.23
2023-02-09T18:04:46.242Z,29.80
2023-02-09T18:07:14.468Z,29.80
2023-02-09T18:09:40.942Z,31.37
2023-02-09T18:12:16.723Z,30.13
2023-02-09T18:14:43.154Z,27.70
2023-02-09T18:17:09.689Z,31.37
2023-02-09T18:19:36.235Z,37.00
2023-02-09T18:22:02.908Z,36.83
2023-02-09T18:24:34.863Z,42.70
2023-02-09T18:27:01.970Z,39.83
2023-02-09T18:29:31.330Z,34.73
2023-02-09T18:32:00.105Z,43.13
2023-02-09T18:34:27.640Z,42.33
2023-02-09T18:36:54.156Z,49.40
2023-02-09T18:39:20.665Z,46.93
2023-02-09T18:41:53.830Z,47.37
2023-02-09T18:44:24.248Z,44.83
2023-02-09T18:46:50.719Z,42.60
2023-02-09T18:49:17.156Z,44.80
2023-02-09T18:51:43.626Z,41.87
2023-02-09T18:54:10.095Z,40.00
2023-02-09T18:56:36.561Z,39.90
2023-02-09T18:59:03.036Z,39.47
2023-02-09T19:01:29.509Z,38.10
2023-02-09T19:03:56.016Z,42.60
2023-02-09T19:06:25.181Z,35.23
2023-02-09T19:08:52.291Z,40.03
2023-02-09T19:11:21.325Z,38.80
2023-02-09T19:14:07.134Z,35.90
2023-02-09T19:16:35.386Z,37.20
2023-02-09T19:19:01.906Z,40.63
2023-02-09T19:21:28.890Z,41.57
2023-02-09T19:23:55.510Z,38.93
2023-02-09T19:26:22.058Z,36.43
2023-02-09T19:28:48.657Z,43.40
2023-02-09T19:31:16.941Z,45.10
2023-02-09T19:33:43.652Z,49.70
2023-02-09T19:36:10.249Z,51.43
2023-02-09T19:38:36.716Z,48.43
2023-02-09T19:41:10.655Z,48.73
2023-02-09T19:43:39.304Z,49.37
2023-02-09T19:46:06.345Z,52.23
2023-02-09T19:48:33.060Z,51.40
2023-02-09T19:50:59.919Z,47.37
2023-02-09T19:53:27.203Z,42.83
2023-02-09T19:55:54.408Z,45.17
2023-02-09T19:58:24.031Z,48.37
2023-02-09T20:00:51.883Z,46.53
2023-02-09T20:03:18.774Z,46.37
2023-02-09T20:05:45.935Z,46.77
2023-02-09T20:08:15.715Z,46.73
2023-02-09T20:10:43.998Z,43.83
2023-02-09T20:13:12.826Z,39.63
2023-02-09T20:15:43.863Z,39.53
2023-02-09T20:18:12.725Z,34.57
2023-02-09T20:20:41.956Z,34.77
2023-02-09T20:23:09.491Z,32.33
2023-02-09T20:25:35.966Z,35.97
2023-02-09T20:28:02.760Z,36.40
2023-02-09T20:30:29.259Z,36.20
2023-02-09T20:32:55.741Z,41.73
2023-02-09T20:35:22.400Z,48.43
2023-02-09T20:37:49.327Z,48.97
2023-02-09T20:40:15.938Z,53.83
2023-02-09T20:43:00.854Z,52.80
2023-02-09T20:45:46.018Z,49.20
2023-02-09T20:48:13.673Z,47.00
2023-02-09T20:50:40.192Z,48.10
2023-02-09T20:53:06.684Z,42.10
2023-02-09T20:55:33.186Z,43.90
2023-02-09T20:57:59.671Z,42.03
2023-02-09T21:00:26.203Z,43.97
2023-02-09T21:02:52.683Z,39.13
2023-02-09T21:05:19.180Z,39.83
2023-02-09T21:07:45.643Z,39.27
2023-02-09T21:10:12.976Z,34.50
2023-02-09T21:12:39.534Z,33.47
2023-02-09T21:15:06.437Z,34.10
2023-02-09T21:17:32.980Z,41.33
2023-02-09T21:19:59.438Z,40.30
2023-02-09T21:22:25.884Z,38.63
2023-02-09T21:24:52.332Z,38.33
2023-02-09T21:27:19.264Z,38.90
2023-02-09T21:29:45.822Z,40.23
2023-02-09T21:32:12.285Z,39.23
2023-02-09T21:34:38.764Z,33.40
2023-02-09T21:37:07.908Z,38.27
2023-02-09T21:39:34.501Z,43.17
2023-02-09T21:42:19.467Z,41.07
2023-02-09T21:44:46.997Z,45.07
2023-02-09T21:47:13.545Z,41.27
2023-02-09T21:49:40.067Z,42.33
2023-02-09T21:52:06.560Z,43.27
2023-02-09T21:54:33.873Z,43.47
2023-02-09T21:57:01.654Z,43.33
2023-02-09T21:59:28.805Z,48.47
2023-02-09T22:01:55.539Z,45.47
2023-02-09T22:04:22.097Z,43.33
2023-02-09T22:06:49.172Z,43.97
2023-02-09T22:09:15.969Z,47.47
2023-02-09T22:11:42.401Z,39.17
2023-02-09T22:14:09.178Z,48.50
2023-02-09T22:16:35.682Z,42.17
2023-02-09T22:19:02.188Z,44.20
2023-02-09T22:21:28.658Z,50.07
2023-02-09T22:23:55.311Z,48.87
2023-02-09T22:26:21.827Z,54.10
2023-02-09T22:28:48.672Z,52.50
2023-02-09T22:31:17.571Z,42.93
2023-02-09T22:33:44.530Z,47.87
2023-02-09T22:36:13.671Z,50.60
2023-02-09T22:38:40.578Z,47.87
2023-02-09T22:41:21.201Z,49.00
2023-02-09T22:43:59.553Z,50.23
2023-02-09T22:46:28.848Z,44.63
2023-02-09T22:48:58.489Z,45.20
2023-02-09T22:51:30.785Z,51.17
2023-02-09T22:53:58.881Z,49.53
2023-02-09T22:56:26.278Z,47.50
2023-02-09T22:58:53.987Z,46.80
2023-02-09T23:01:21.017Z,51.90
2023-02-09T23:03:47.795Z,48.90
2023-02-09T23:06:17.362Z,53.60
2023-02-09T23:08:44.292Z,49.37
2023-02-09T23:11:14.682Z,49.00
2023-02-09T23:13:41.844Z,52.87
2023-02-09T23:16:20.590Z,50.73
2023-02-09T23:18:55.877Z,45.63
2023-02-09T23:21:25.115Z,45.80
2023-02-09T23:23:52.192Z,42.53
2023-02-09T23:26:19.797Z,47.20
2023-02-09T23:28:47.936Z,47.17
2023-02-09T23:31:16.776Z,45.20
2023-02-09T23:33:43.503Z,48.37
2023-02-09T23:36:31.655Z,42.10
2023-02-09T23:39:00.958Z,55.37
2023-02-09T23:41:27.935Z,50.27
2023-02-09T23:43:55.214Z,44.23
2023-02-09T23:46:26.740Z,44.83
2023-02-09T23:48:55.075Z,45.60
2023-02-09T23:51:28.435Z,43.77
2023-02-09T23:53:57.766Z,44.37
2023-02-09T23:56:24.967Z,49.67
2023-02-09T23:58:53.095Z,50.47
